<?xml version="1.0" encoding="UTF-8" standalone="no" ?>
<gpx xmlns="http://www.topografix.com/GPX/1/1" xmlns:xsi="http://www.w3.org/2001/XMLSchema-instance" xsi:schemaLocation="http://www.topografix.com/GPX/1/1 http://www.topografix.com/GPX/1/1/gpx.xsd" version="1.1" creator="VisuGPX - https://www.visugpx.com">
  <metadata>
    <name>Davrinche20104</name>
    <desc><![CDATA[la partie 4 des itinéraires de repérage]]></desc>
  </metadata>
  <trk>
    <name><![CDATA[--Saint-Georges-de-Mons-- OR-5366929:ser-jb02-l]]></name>
    <trkseg>
      <trkpt lat="45.9404" lon="2.8405">
        <ele>733</ele>
        <time>2015-10-17T12:38:55Z</time>
      </trkpt>
      <trkpt lat="45.94049" lon="2.83994">
        <ele>733</ele>
        <time>2015-10-17T12:40:55Z</time>
      </trkpt>
      <trkpt lat="45.94067" lon="2.83955">
        <ele>733</ele>
        <time>2015-10-17T12:42:55Z</time>
      </trkpt>
      <trkpt lat="45.94085" lon="2.83927">
        <ele>733</ele>
        <time>2015-10-17T12:44:55Z</time>
      </trkpt>
      <trkpt lat="45.94109" lon="2.83908">
        <ele>733</ele>
        <time>2015-10-17T12:46:55Z</time>
      </trkpt>
      <trkpt lat="45.94137" lon="2.83925">
        <ele>733</ele>
        <time>2015-10-17T12:48:55Z</time>
      </trkpt>
      <trkpt lat="45.94173" lon="2.83949">
        <ele>733</ele>
        <time>2015-10-17T12:50:55Z</time>
      </trkpt>
      <trkpt lat="45.94196" lon="2.83957">
        <ele>734</ele>
        <time>2015-10-17T12:52:55Z</time>
      </trkpt>
      <trkpt lat="45.94226" lon="2.83955">
        <ele>734</ele>
        <time>2015-10-17T12:54:55Z</time>
      </trkpt>
      <trkpt lat="45.94273" lon="2.83944">
        <ele>734</ele>
        <time>2015-10-17T12:56:55Z</time>
      </trkpt>
      <trkpt lat="45.94324" lon="2.83927">
        <ele>733</ele>
        <time>2015-10-17T12:58:55Z</time>
      </trkpt>
      <trkpt lat="45.94357" lon="2.83923">
        <ele>732</ele>
        <time>2015-10-17T13:00:55Z</time>
      </trkpt>
      <trkpt lat="45.94393" lon="2.83906">
        <ele>730</ele>
        <time>2015-10-17T13:02:55Z</time>
      </trkpt>
      <trkpt lat="45.94422" lon="2.83895">
        <ele>728</ele>
        <time>2015-10-17T13:04:55Z</time>
      </trkpt>
      <trkpt lat="45.94422" lon="2.83944">
        <ele>728</ele>
        <time>2015-10-17T13:06:55Z</time>
      </trkpt>
      <trkpt lat="45.94425" lon="2.83996">
        <ele>729</ele>
        <time>2015-10-17T13:08:55Z</time>
      </trkpt>
      <trkpt lat="45.94421" lon="2.84039">
        <ele>729</ele>
        <time>2015-10-17T13:10:55Z</time>
      </trkpt>
      <trkpt lat="45.94415" lon="2.84095">
        <ele>731</ele>
        <time>2015-10-17T13:12:55Z</time>
      </trkpt>
      <trkpt lat="45.94412" lon="2.8414">
        <ele>734</ele>
        <time>2015-10-17T13:14:55Z</time>
      </trkpt>
      <trkpt lat="45.94411" lon="2.8417">
        <ele>735</ele>
        <time>2015-10-17T13:16:55Z</time>
      </trkpt>
      <trkpt lat="45.94437" lon="2.84167">
        <ele>735</ele>
        <time>2015-10-17T13:18:55Z</time>
      </trkpt>
      <trkpt lat="45.94469" lon="2.84163">
        <ele>735</ele>
        <time>2015-10-17T13:20:55Z</time>
      </trkpt>
      <trkpt lat="45.94497" lon="2.84159">
        <ele>734</ele>
        <time>2015-10-17T13:22:55Z</time>
      </trkpt>
      <trkpt lat="45.94525" lon="2.84161">
        <ele>734</ele>
        <time>2015-10-17T13:24:55Z</time>
      </trkpt>
      <trkpt lat="45.9456" lon="2.84155">
        <ele>733</ele>
        <time>2015-10-17T13:26:55Z</time>
      </trkpt>
      <trkpt lat="45.9459" lon="2.84165">
        <ele>733</ele>
        <time>2015-10-17T13:28:55Z</time>
      </trkpt>
      <trkpt lat="45.94612" lon="2.84189">
        <ele>735</ele>
        <time>2015-10-17T13:30:55Z</time>
      </trkpt>
      <trkpt lat="45.94639" lon="2.84204">
        <ele>736</ele>
        <time>2015-10-17T13:32:55Z</time>
      </trkpt>
      <trkpt lat="45.94667" lon="2.842">
        <ele>736</ele>
        <time>2015-10-17T13:34:55Z</time>
      </trkpt>
      <trkpt lat="45.94693" lon="2.84206">
        <ele>735</ele>
        <time>2015-10-17T13:36:55Z</time>
      </trkpt>
      <trkpt lat="45.94718" lon="2.84223">
        <ele>735</ele>
        <time>2015-10-17T13:38:55Z</time>
      </trkpt>
      <trkpt lat="45.94755" lon="2.84236">
        <ele>734</ele>
        <time>2015-10-17T13:40:55Z</time>
      </trkpt>
      <trkpt lat="45.94781" lon="2.84249">
        <ele>732</ele>
        <time>2015-10-17T13:42:55Z</time>
      </trkpt>
      <trkpt lat="45.94809" lon="2.8426">
        <ele>730</ele>
        <time>2015-10-17T13:44:55Z</time>
      </trkpt>
      <trkpt lat="45.94833" lon="2.84268">
        <ele>729</ele>
        <time>2015-10-17T13:46:55Z</time>
      </trkpt>
      <trkpt lat="45.94857" lon="2.8427">
        <ele>729</ele>
        <time>2015-10-17T13:48:55Z</time>
      </trkpt>
      <trkpt lat="45.94882" lon="2.84258">
        <ele>729</ele>
        <time>2015-10-17T13:50:55Z</time>
      </trkpt>
      <trkpt lat="45.94906" lon="2.84245">
        <ele>730</ele>
        <time>2015-10-17T13:52:55Z</time>
      </trkpt>
      <trkpt lat="45.9494" lon="2.8423">
        <ele>730</ele>
        <time>2015-10-17T13:54:55Z</time>
      </trkpt>
      <trkpt lat="45.94967" lon="2.84288">
        <ele>732</ele>
        <time>2015-10-17T13:56:55Z</time>
      </trkpt>
      <trkpt lat="45.94995" lon="2.84352">
        <ele>736</ele>
        <time>2015-10-17T13:58:55Z</time>
      </trkpt>
      <trkpt lat="45.95018" lon="2.84419">
        <ele>738</ele>
        <time>2015-10-17T14:00:55Z</time>
      </trkpt>
      <trkpt lat="45.95048" lon="2.84491">
        <ele>741</ele>
        <time>2015-10-17T14:02:55Z</time>
      </trkpt>
      <trkpt lat="45.95057" lon="2.84543">
        <ele>742</ele>
        <time>2015-10-17T14:04:55Z</time>
      </trkpt>
      <trkpt lat="45.95021" lon="2.84571">
        <ele>742</ele>
        <time>2015-10-17T14:06:55Z</time>
      </trkpt>
      <trkpt lat="45.94977" lon="2.84592">
        <ele>741</ele>
        <time>2015-10-17T14:08:55Z</time>
      </trkpt>
      <trkpt lat="45.9496" lon="2.84618">
        <ele>742</ele>
        <time>2015-10-17T14:10:55Z</time>
      </trkpt>
      <trkpt lat="45.94966" lon="2.84676">
        <ele>744</ele>
        <time>2015-10-17T14:12:55Z</time>
      </trkpt>
      <trkpt lat="45.94982" lon="2.84781">
        <ele>749</ele>
        <time>2015-10-17T14:14:55Z</time>
      </trkpt>
      <trkpt lat="45.95001" lon="2.84876">
        <ele>752</ele>
        <time>2015-10-17T14:16:55Z</time>
      </trkpt>
      <trkpt lat="45.9501" lon="2.84951">
        <ele>754</ele>
        <time>2015-10-17T14:18:55Z</time>
      </trkpt>
      <trkpt lat="45.95024" lon="2.85082">
        <ele>755</ele>
        <time>2015-10-17T14:20:55Z</time>
      </trkpt>
      <trkpt lat="45.95149" lon="2.85189">
        <ele>753</ele>
        <time>2015-10-17T14:22:55Z</time>
      </trkpt>
      <trkpt lat="45.95294" lon="2.85315">
        <ele>743</ele>
        <time>2015-10-17T14:24:55Z</time>
      </trkpt>
      <trkpt lat="45.95362" lon="2.85373">
        <ele>737</ele>
        <time>2015-10-17T14:26:55Z</time>
      </trkpt>
      <trkpt lat="45.95459" lon="2.85431">
        <ele>729</ele>
        <time>2015-10-17T14:28:55Z</time>
      </trkpt>
      <trkpt lat="45.95506" lon="2.85451">
        <ele>727</ele>
        <time>2015-10-17T14:30:55Z</time>
      </trkpt>
      <trkpt lat="45.95537" lon="2.85479">
        <ele>726</ele>
        <time>2015-10-17T14:32:55Z</time>
      </trkpt>
      <trkpt lat="45.95555" lon="2.85539">
        <ele>726</ele>
        <time>2015-10-17T14:34:55Z</time>
      </trkpt>
      <trkpt lat="45.95541" lon="2.85601">
        <ele>729</ele>
        <time>2015-10-17T14:36:55Z</time>
      </trkpt>
      <trkpt lat="45.95446" lon="2.85938">
        <ele>742</ele>
        <time>2015-10-17T14:38:55Z</time>
      </trkpt>
      <trkpt lat="45.95521" lon="2.8597">
        <ele>742</ele>
        <time>2015-10-17T14:40:55Z</time>
      </trkpt>
      <trkpt lat="45.95583" lon="2.85983">
        <ele>742</ele>
        <time>2015-10-17T14:42:55Z</time>
      </trkpt>
      <trkpt lat="45.95619" lon="2.85961">
        <ele>741</ele>
        <time>2015-10-17T14:44:55Z</time>
      </trkpt>
      <trkpt lat="45.95625" lon="2.85852">
        <ele>740</ele>
        <time>2015-10-17T14:46:55Z</time>
      </trkpt>
      <trkpt lat="45.95638" lon="2.8576">
        <ele>738</ele>
        <time>2015-10-17T14:48:55Z</time>
      </trkpt>
      <trkpt lat="45.95668" lon="2.85687">
        <ele>738</ele>
        <time>2015-10-17T14:50:55Z</time>
      </trkpt>
      <trkpt lat="45.95695" lon="2.85633">
        <ele>736</ele>
        <time>2015-10-17T14:52:55Z</time>
      </trkpt>
      <trkpt lat="45.9574" lon="2.85549">
        <ele>732</ele>
        <time>2015-10-17T14:54:55Z</time>
      </trkpt>
      <trkpt lat="45.95777" lon="2.85504">
        <ele>728</ele>
        <time>2015-10-17T14:56:55Z</time>
      </trkpt>
      <trkpt lat="45.95797" lon="2.85442">
        <ele>723</ele>
        <time>2015-10-17T14:58:55Z</time>
      </trkpt>
      <trkpt lat="45.95822" lon="2.85391">
        <ele>720</ele>
        <time>2015-10-17T15:00:55Z</time>
      </trkpt>
      <trkpt lat="45.95871" lon="2.85326">
        <ele>717</ele>
        <time>2015-10-17T15:02:55Z</time>
      </trkpt>
      <trkpt lat="45.9592" lon="2.85292">
        <ele>717</ele>
        <time>2015-10-17T15:04:55Z</time>
      </trkpt>
      <trkpt lat="45.95941" lon="2.85285">
        <ele>715</ele>
        <time>2015-10-17T15:06:55Z</time>
      </trkpt>
      <trkpt lat="45.95962" lon="2.85236">
        <ele>713</ele>
        <time>2015-10-17T15:08:55Z</time>
      </trkpt>
      <trkpt lat="45.95958" lon="2.8515">
        <ele>715</ele>
        <time>2015-10-17T15:10:55Z</time>
      </trkpt>
      <trkpt lat="45.95959" lon="2.85097">
        <ele>717</ele>
        <time>2015-10-17T15:12:55Z</time>
      </trkpt>
      <trkpt lat="45.95984" lon="2.85006">
        <ele>724</ele>
        <time>2015-10-17T15:14:55Z</time>
      </trkpt>
      <trkpt lat="45.96001" lon="2.84944">
        <ele>727</ele>
        <time>2015-10-17T15:16:55Z</time>
      </trkpt>
      <trkpt lat="45.96022" lon="2.84869">
        <ele>729</ele>
        <time>2015-10-17T15:18:55Z</time>
      </trkpt>
      <trkpt lat="45.96083" lon="2.84734">
        <ele>724</ele>
        <time>2015-10-17T15:20:55Z</time>
      </trkpt>
      <trkpt lat="45.96147" lon="2.84605">
        <ele>721</ele>
        <time>2015-10-17T15:22:55Z</time>
      </trkpt>
      <trkpt lat="45.96225" lon="2.84513">
        <ele>718</ele>
        <time>2015-10-17T15:24:55Z</time>
      </trkpt>
      <trkpt lat="45.96307" lon="2.84393">
        <ele>722</ele>
        <time>2015-10-17T15:26:55Z</time>
      </trkpt>
      <trkpt lat="45.96354" lon="2.84305">
        <ele>723</ele>
        <time>2015-10-17T15:28:55Z</time>
      </trkpt>
      <trkpt lat="45.9642" lon="2.84236">
        <ele>716</ele>
        <time>2015-10-17T15:30:55Z</time>
      </trkpt>
      <trkpt lat="45.96436" lon="2.84189">
        <ele>709</ele>
        <time>2015-10-17T15:32:55Z</time>
      </trkpt>
      <trkpt lat="45.96509" lon="2.84163">
        <ele>700</ele>
        <time>2015-10-17T15:34:55Z</time>
      </trkpt>
      <trkpt lat="45.96575" lon="2.84129">
        <ele>698</ele>
        <time>2015-10-17T15:36:55Z</time>
      </trkpt>
      <trkpt lat="45.96618" lon="2.84118">
        <ele>698</ele>
        <time>2015-10-17T15:38:55Z</time>
      </trkpt>
      <trkpt lat="45.96685" lon="2.84105">
        <ele>700</ele>
        <time>2015-10-17T15:40:55Z</time>
      </trkpt>
      <trkpt lat="45.96738" lon="2.84135">
        <ele>703</ele>
        <time>2015-10-17T15:42:55Z</time>
      </trkpt>
      <trkpt lat="45.96768" lon="2.84176">
        <ele>704</ele>
        <time>2015-10-17T15:44:55Z</time>
      </trkpt>
      <trkpt lat="45.96806" lon="2.84202">
        <ele>705</ele>
        <time>2015-10-17T15:46:55Z</time>
      </trkpt>
      <trkpt lat="45.9686" lon="2.84223">
        <ele>707</ele>
        <time>2015-10-17T15:48:55Z</time>
      </trkpt>
      <trkpt lat="45.96902" lon="2.84249">
        <ele>705</ele>
        <time>2015-10-17T15:50:55Z</time>
      </trkpt>
      <trkpt lat="45.96952" lon="2.84309">
        <ele>701</ele>
        <time>2015-10-17T15:52:55Z</time>
      </trkpt>
      <trkpt lat="45.96987" lon="2.84365">
        <ele>699</ele>
        <time>2015-10-17T15:54:55Z</time>
      </trkpt>
      <trkpt lat="45.97027" lon="2.84423">
        <ele>695</ele>
        <time>2015-10-17T15:56:55Z</time>
      </trkpt>
      <trkpt lat="45.97067" lon="2.84479">
        <ele>690</ele>
        <time>2015-10-17T15:58:55Z</time>
      </trkpt>
      <trkpt lat="45.97099" lon="2.84534">
        <ele>685</ele>
        <time>2015-10-17T16:00:55Z</time>
      </trkpt>
      <trkpt lat="45.97136" lon="2.84592">
        <ele>681</ele>
        <time>2015-10-17T16:02:55Z</time>
      </trkpt>
      <trkpt lat="45.97164" lon="2.84657">
        <ele>676</ele>
        <time>2015-10-17T16:04:55Z</time>
      </trkpt>
      <trkpt lat="45.97188" lon="2.84725">
        <ele>669</ele>
        <time>2015-10-17T16:06:55Z</time>
      </trkpt>
      <trkpt lat="45.97206" lon="2.84805">
        <ele>667</ele>
        <time>2015-10-17T16:08:55Z</time>
      </trkpt>
      <trkpt lat="45.97212" lon="2.84873">
        <ele>668</ele>
        <time>2015-10-17T16:10:55Z</time>
      </trkpt>
      <trkpt lat="45.97225" lon="2.84918">
        <ele>671</ele>
        <time>2015-10-17T16:12:55Z</time>
      </trkpt>
      <trkpt lat="45.97255" lon="2.84964">
        <ele>675</ele>
        <time>2015-10-17T16:14:55Z</time>
      </trkpt>
      <trkpt lat="45.97216" lon="2.84897">
        <ele>669</ele>
        <time>2015-10-17T16:16:55Z</time>
      </trkpt>
      <trkpt lat="45.972" lon="2.85011">
        <ele>667</ele>
        <time>2015-10-17T16:18:55Z</time>
      </trkpt>
      <trkpt lat="45.97196" lon="2.85086">
        <ele>661</ele>
        <time>2015-10-17T16:20:55Z</time>
      </trkpt>
      <trkpt lat="45.97228" lon="2.8517">
        <ele>655</ele>
        <time>2015-10-17T16:22:55Z</time>
      </trkpt>
      <trkpt lat="45.97246" lon="2.85215">
        <ele>650</ele>
        <time>2015-10-17T16:24:55Z</time>
      </trkpt>
      <trkpt lat="45.97285" lon="2.85249">
        <ele>633</ele>
        <time>2015-10-17T16:26:55Z</time>
      </trkpt>
      <trkpt lat="45.97243" lon="2.85245">
        <ele>642</ele>
        <time>2015-10-17T16:28:55Z</time>
      </trkpt>
      <trkpt lat="45.97181" lon="2.85163">
        <ele>641</ele>
        <time>2015-10-17T16:30:55Z</time>
      </trkpt>
      <trkpt lat="45.97127" lon="2.85069">
        <ele>638</ele>
        <time>2015-10-17T16:32:55Z</time>
      </trkpt>
      <trkpt lat="45.97097" lon="2.85019">
        <ele>635</ele>
        <time>2015-10-17T16:34:55Z</time>
      </trkpt>
      <trkpt lat="45.97061" lon="2.84981">
        <ele>633</ele>
        <time>2015-10-17T16:36:55Z</time>
      </trkpt>
      <trkpt lat="45.97002" lon="2.84936">
        <ele>632</ele>
        <time>2015-10-17T16:38:55Z</time>
      </trkpt>
      <trkpt lat="45.96924" lon="2.84897">
        <ele>627</ele>
        <time>2015-10-17T16:40:55Z</time>
      </trkpt>
      <trkpt lat="45.96859" lon="2.84882">
        <ele>623</ele>
        <time>2015-10-17T16:42:55Z</time>
      </trkpt>
      <trkpt lat="45.96808" lon="2.84848">
        <ele>632</ele>
        <time>2015-10-17T16:44:55Z</time>
      </trkpt>
      <trkpt lat="45.96818" lon="2.84891">
        <ele>623</ele>
        <time>2015-10-17T16:46:55Z</time>
      </trkpt>
      <trkpt lat="45.9689" lon="2.84944">
        <ele>612</ele>
        <time>2015-10-17T16:48:55Z</time>
      </trkpt>
      <trkpt lat="45.96929" lon="2.84985">
        <ele>604</ele>
        <time>2015-10-17T16:50:55Z</time>
      </trkpt>
      <trkpt lat="45.96957" lon="2.85024">
        <ele>599</ele>
        <time>2015-10-17T16:52:55Z</time>
      </trkpt>
      <trkpt lat="45.97014" lon="2.85112">
        <ele>586</ele>
        <time>2015-10-17T16:54:55Z</time>
      </trkpt>
      <trkpt lat="45.97032" lon="2.85161">
        <ele>583</ele>
        <time>2015-10-17T16:56:55Z</time>
      </trkpt>
      <trkpt lat="45.97061" lon="2.85238">
        <ele>577</ele>
        <time>2015-10-17T16:58:55Z</time>
      </trkpt>
      <trkpt lat="45.97075" lon="2.85283">
        <ele>570</ele>
        <time>2015-10-17T17:00:55Z</time>
      </trkpt>
      <trkpt lat="45.97121" lon="2.85373">
        <ele>566</ele>
        <time>2015-10-17T17:02:55Z</time>
      </trkpt>
      <trkpt lat="45.97142" lon="2.85431">
        <ele>562</ele>
        <time>2015-10-17T17:04:55Z</time>
      </trkpt>
      <trkpt lat="45.9716" lon="2.85494">
        <ele>555</ele>
        <time>2015-10-17T17:06:55Z</time>
      </trkpt>
      <trkpt lat="45.97173" lon="2.85532">
        <ele>551</ele>
        <time>2015-10-17T17:08:55Z</time>
      </trkpt>
      <trkpt lat="45.972" lon="2.85588">
        <ele>545</ele>
        <time>2015-10-17T17:10:55Z</time>
      </trkpt>
      <trkpt lat="45.97228" lon="2.85616">
        <ele>544</ele>
        <time>2015-10-17T17:12:55Z</time>
      </trkpt>
      <trkpt lat="45.9726" lon="2.85642">
        <ele>541</ele>
        <time>2015-10-17T17:14:55Z</time>
      </trkpt>
      <trkpt lat="45.9729" lon="2.8567">
        <ele>534</ele>
        <time>2015-10-17T17:16:55Z</time>
      </trkpt>
      <trkpt lat="45.97322" lon="2.85685">
        <ele>531</ele>
        <time>2015-10-17T17:18:55Z</time>
      </trkpt>
      <trkpt lat="45.97357" lon="2.85674">
        <ele>537</ele>
        <time>2015-10-17T17:20:55Z</time>
      </trkpt>
      <trkpt lat="45.97389" lon="2.85676">
        <ele>537</ele>
        <time>2015-10-17T17:22:55Z</time>
      </trkpt>
      <trkpt lat="45.97427" lon="2.85706">
        <ele>526</ele>
        <time>2015-10-17T17:24:55Z</time>
      </trkpt>
      <trkpt lat="45.97467" lon="2.85723">
        <ele>520</ele>
        <time>2015-10-17T17:26:55Z</time>
      </trkpt>
      <trkpt lat="45.97553" lon="2.85725">
        <ele>519</ele>
        <time>2015-10-17T17:28:55Z</time>
      </trkpt>
      <trkpt lat="45.97613" lon="2.85727">
        <ele>511</ele>
        <time>2015-10-17T17:30:55Z</time>
      </trkpt>
      <trkpt lat="45.97613" lon="2.8576">
        <ele>502</ele>
        <time>2015-10-17T17:32:55Z</time>
      </trkpt>
      <trkpt lat="45.97549" lon="2.85788">
        <ele>494</ele>
        <time>2015-10-17T17:34:55Z</time>
      </trkpt>
      <trkpt lat="45.97477" lon="2.85803">
        <ele>488</ele>
        <time>2015-10-17T17:36:55Z</time>
      </trkpt>
      <trkpt lat="45.97355" lon="2.85809">
        <ele>485</ele>
        <time>2015-10-17T17:38:55Z</time>
      </trkpt>
      <trkpt lat="45.97297" lon="2.85805">
        <ele>486</ele>
        <time>2015-10-17T17:40:55Z</time>
      </trkpt>
      <trkpt lat="45.97255" lon="2.85818">
        <ele>480</ele>
        <time>2015-10-17T17:42:55Z</time>
      </trkpt>
      <trkpt lat="45.97242" lon="2.85839">
        <ele>476</ele>
        <time>2015-10-17T17:44:55Z</time>
      </trkpt>
      <trkpt lat="45.97254" lon="2.85893">
        <ele>481</ele>
        <time>2015-10-17T17:46:55Z</time>
      </trkpt>
      <trkpt lat="45.97279" lon="2.85895">
        <ele>480</ele>
        <time>2015-10-17T17:48:55Z</time>
      </trkpt>
      <trkpt lat="45.97306" lon="2.85897">
        <ele>480</ele>
        <time>2015-10-17T17:50:55Z</time>
      </trkpt>
      <trkpt lat="45.97352" lon="2.85923">
        <ele>481</ele>
        <time>2015-10-17T17:52:55Z</time>
      </trkpt>
      <trkpt lat="45.97409" lon="2.85923">
        <ele>476</ele>
        <time>2015-10-17T17:54:55Z</time>
      </trkpt>
      <trkpt lat="45.9751" lon="2.85921">
        <ele>470</ele>
        <time>2015-10-17T17:56:55Z</time>
      </trkpt>
      <trkpt lat="45.97549" lon="2.85923">
        <ele>467</ele>
        <time>2015-10-17T17:58:55Z</time>
      </trkpt>
      <trkpt lat="45.97589" lon="2.85923">
        <ele>463</ele>
        <time>2015-10-17T18:00:55Z</time>
      </trkpt>
      <trkpt lat="45.97627" lon="2.85931">
        <ele>463</ele>
        <time>2015-10-17T18:02:55Z</time>
      </trkpt>
      <trkpt lat="45.97667" lon="2.85929">
        <ele>459</ele>
        <time>2015-10-17T18:04:55Z</time>
      </trkpt>
      <trkpt lat="45.977" lon="2.85931">
        <ele>456</ele>
        <time>2015-10-17T18:06:55Z</time>
      </trkpt>
      <trkpt lat="45.9775" lon="2.85955">
        <ele>457</ele>
        <time>2015-10-17T18:08:55Z</time>
      </trkpt>
      <trkpt lat="45.9778" lon="2.85981">
        <ele>458</ele>
        <time>2015-10-17T18:10:55Z</time>
      </trkpt>
      <trkpt lat="45.97861" lon="2.86013">
        <ele>451</ele>
        <time>2015-10-17T18:12:55Z</time>
      </trkpt>
      <trkpt lat="45.9787" lon="2.86036">
        <ele>454</ele>
        <time>2015-10-17T18:14:55Z</time>
      </trkpt>
      <trkpt lat="45.97868" lon="2.86086">
        <ele>459</ele>
        <time>2015-10-17T18:16:55Z</time>
      </trkpt>
      <trkpt lat="45.97831" lon="2.86279">
        <ele>461</ele>
        <time>2015-10-17T18:18:55Z</time>
      </trkpt>
      <trkpt lat="45.97805" lon="2.86498">
        <ele>470</ele>
        <time>2015-10-17T18:20:55Z</time>
      </trkpt>
      <trkpt lat="45.97807" lon="2.86564">
        <ele>465</ele>
        <time>2015-10-17T18:22:55Z</time>
      </trkpt>
      <trkpt lat="45.97814" lon="2.86639">
        <ele>459</ele>
        <time>2015-10-17T18:24:55Z</time>
      </trkpt>
      <trkpt lat="45.97813" lon="2.86732">
        <ele>470</ele>
        <time>2015-10-17T18:26:55Z</time>
      </trkpt>
      <trkpt lat="45.97864" lon="2.86794">
        <ele>461</ele>
        <time>2015-10-17T18:28:55Z</time>
      </trkpt>
      <trkpt lat="45.97887" lon="2.86843">
        <ele>461</ele>
        <time>2015-10-17T18:30:55Z</time>
      </trkpt>
      <trkpt lat="45.97917" lon="2.86888">
        <ele>455</ele>
        <time>2015-10-17T18:32:55Z</time>
      </trkpt>
      <trkpt lat="45.97944" lon="2.86946">
        <ele>459</ele>
        <time>2015-10-17T18:34:55Z</time>
      </trkpt>
      <trkpt lat="45.9799" lon="2.87017">
        <ele>447</ele>
        <time>2015-10-17T18:36:55Z</time>
      </trkpt>
      <trkpt lat="45.9801" lon="2.87004">
        <ele>435</ele>
        <time>2015-10-17T18:38:55Z</time>
      </trkpt>
      <trkpt lat="45.9806" lon="2.86957">
        <ele>427</ele>
        <time>2015-10-17T18:40:55Z</time>
      </trkpt>
      <trkpt lat="45.98089" lon="2.86931">
        <ele>428</ele>
        <time>2015-10-17T18:42:55Z</time>
      </trkpt>
      <trkpt lat="45.98114" lon="2.86929">
        <ele>436</ele>
        <time>2015-10-17T18:44:55Z</time>
      </trkpt>
      <trkpt lat="45.98135" lon="2.86948">
        <ele>441</ele>
        <time>2015-10-17T18:46:55Z</time>
      </trkpt>
      <trkpt lat="45.9815" lon="2.86938">
        <ele>446</ele>
        <time>2015-10-17T18:48:55Z</time>
      </trkpt>
      <trkpt lat="45.98166" lon="2.86918">
        <ele>452</ele>
        <time>2015-10-17T18:50:55Z</time>
      </trkpt>
      <trkpt lat="45.98137" lon="2.86897">
        <ele>448</ele>
        <time>2015-10-17T18:52:55Z</time>
      </trkpt>
      <trkpt lat="45.98116" lon="2.86878">
        <ele>447</ele>
        <time>2015-10-17T18:54:55Z</time>
      </trkpt>
      <trkpt lat="45.98159" lon="2.86839">
        <ele>470</ele>
        <time>2015-10-17T18:56:55Z</time>
      </trkpt>
      <trkpt lat="45.98201" lon="2.86837">
        <ele>481</ele>
        <time>2015-10-17T18:58:55Z</time>
      </trkpt>
      <trkpt lat="45.98239" lon="2.86835">
        <ele>489</ele>
        <time>2015-10-17T19:00:55Z</time>
      </trkpt>
      <trkpt lat="45.98277" lon="2.86843">
        <ele>491</ele>
        <time>2015-10-17T19:02:55Z</time>
      </trkpt>
      <trkpt lat="45.98284" lon="2.86845">
        <ele>491</ele>
        <time>2015-10-17T19:04:55Z</time>
      </trkpt>
      <trkpt lat="45.9823" lon="2.8692">
        <ele>471</ele>
        <time>2015-10-17T19:06:55Z</time>
      </trkpt>
      <trkpt lat="45.98226" lon="2.86938">
        <ele>470</ele>
        <time>2015-10-17T19:08:55Z</time>
      </trkpt>
      <trkpt lat="45.98239" lon="2.8697">
        <ele>476</ele>
        <time>2015-10-17T19:10:55Z</time>
      </trkpt>
      <trkpt lat="45.98254" lon="2.86996">
        <ele>482</ele>
        <time>2015-10-17T19:12:55Z</time>
      </trkpt>
      <trkpt lat="45.98266" lon="2.87049">
        <ele>488</ele>
        <time>2015-10-17T19:14:55Z</time>
      </trkpt>
      <trkpt lat="45.98293" lon="2.87036">
        <ele>496</ele>
        <time>2015-10-17T19:16:55Z</time>
      </trkpt>
      <trkpt lat="45.98335" lon="2.86996">
        <ele>504</ele>
        <time>2015-10-17T19:18:55Z</time>
      </trkpt>
      <trkpt lat="45.98378" lon="2.86951">
        <ele>508</ele>
        <time>2015-10-17T19:20:55Z</time>
      </trkpt>
      <trkpt lat="45.98406" lon="2.86931">
        <ele>511</ele>
        <time>2015-10-17T19:22:55Z</time>
      </trkpt>
      <trkpt lat="45.98468" lon="2.86899">
        <ele>525</ele>
        <time>2015-10-17T19:24:55Z</time>
      </trkpt>
      <trkpt lat="45.98508" lon="2.86796">
        <ele>535</ele>
        <time>2015-10-17T19:26:55Z</time>
      </trkpt>
      <trkpt lat="45.98533" lon="2.86783">
        <ele>545</ele>
        <time>2015-10-17T19:28:55Z</time>
      </trkpt>
      <trkpt lat="45.98514" lon="2.86843">
        <ele>536</ele>
        <time>2015-10-17T19:30:55Z</time>
      </trkpt>
      <trkpt lat="45.98508" lon="2.86931">
        <ele>542</ele>
        <time>2015-10-17T19:32:55Z</time>
      </trkpt>
      <trkpt lat="45.98506" lon="2.87034">
        <ele>556</ele>
        <time>2015-10-17T19:34:55Z</time>
      </trkpt>
      <trkpt lat="45.98491" lon="2.87114">
        <ele>562</ele>
        <time>2015-10-17T19:36:55Z</time>
      </trkpt>
      <trkpt lat="45.98481" lon="2.87176">
        <ele>565</ele>
        <time>2015-10-17T19:38:55Z</time>
      </trkpt>
      <trkpt lat="45.98479" lon="2.87236">
        <ele>566</ele>
        <time>2015-10-17T19:40:55Z</time>
      </trkpt>
      <trkpt lat="45.98496" lon="2.8726">
        <ele>567</ele>
        <time>2015-10-17T19:42:55Z</time>
      </trkpt>
      <trkpt lat="45.98527" lon="2.87234">
        <ele>574</ele>
        <time>2015-10-17T19:44:55Z</time>
      </trkpt>
      <trkpt lat="45.98552" lon="2.87165">
        <ele>584</ele>
        <time>2015-10-17T19:46:55Z</time>
      </trkpt>
      <trkpt lat="45.98594" lon="2.87103">
        <ele>593</ele>
        <time>2015-10-17T19:48:55Z</time>
      </trkpt>
      <trkpt lat="45.9862" lon="2.87064">
        <ele>600</ele>
        <time>2015-10-17T19:50:55Z</time>
      </trkpt>
      <trkpt lat="45.98637" lon="2.87021">
        <ele>603</ele>
        <time>2015-10-17T19:52:55Z</time>
      </trkpt>
      <trkpt lat="45.98663" lon="2.86968">
        <ele>610</ele>
        <time>2015-10-17T19:54:55Z</time>
      </trkpt>
      <trkpt lat="45.98688" lon="2.86905">
        <ele>615</ele>
        <time>2015-10-17T19:56:55Z</time>
      </trkpt>
      <trkpt lat="45.98733" lon="2.86843">
        <ele>628</ele>
        <time>2015-10-17T19:58:55Z</time>
      </trkpt>
      <trkpt lat="45.98766" lon="2.86787">
        <ele>639</ele>
        <time>2015-10-17T20:00:55Z</time>
      </trkpt>
      <trkpt lat="45.98793" lon="2.86689">
        <ele>650</ele>
        <time>2015-10-17T20:02:55Z</time>
      </trkpt>
      <trkpt lat="45.98793" lon="2.86639">
        <ele>655</ele>
        <time>2015-10-17T20:04:55Z</time>
      </trkpt>
      <trkpt lat="45.98791" lon="2.86596">
        <ele>661</ele>
        <time>2015-10-17T20:06:55Z</time>
      </trkpt>
      <trkpt lat="45.9876" lon="2.86509">
        <ele>666</ele>
        <time>2015-10-17T20:08:55Z</time>
      </trkpt>
      <trkpt lat="45.98746" lon="2.86461">
        <ele>670</ele>
        <time>2015-10-17T20:10:55Z</time>
      </trkpt>
      <trkpt lat="45.98725" lon="2.86399">
        <ele>673</ele>
        <time>2015-10-17T20:12:55Z</time>
      </trkpt>
      <trkpt lat="45.98715" lon="2.86339">
        <ele>677</ele>
        <time>2015-10-17T20:14:55Z</time>
      </trkpt>
      <trkpt lat="45.98722" lon="2.863">
        <ele>681</ele>
        <time>2015-10-17T20:16:55Z</time>
      </trkpt>
      <trkpt lat="45.98763" lon="2.8629">
        <ele>687</ele>
        <time>2015-10-17T20:18:55Z</time>
      </trkpt>
      <trkpt lat="45.98796" lon="2.86315">
        <ele>689</ele>
        <time>2015-10-17T20:20:55Z</time>
      </trkpt>
      <trkpt lat="45.98846" lon="2.86339">
        <ele>693</ele>
        <time>2015-10-17T20:22:55Z</time>
      </trkpt>
      <trkpt lat="45.98892" lon="2.86363">
        <ele>696</ele>
        <time>2015-10-17T20:24:55Z</time>
      </trkpt>
      <trkpt lat="45.98933" lon="2.86397">
        <ele>701</ele>
        <time>2015-10-17T20:26:55Z</time>
      </trkpt>
      <trkpt lat="45.98965" lon="2.8644">
        <ele>703</ele>
        <time>2015-10-17T20:28:55Z</time>
      </trkpt>
      <trkpt lat="45.99001" lon="2.86474">
        <ele>704</ele>
        <time>2015-10-17T20:30:55Z</time>
      </trkpt>
      <trkpt lat="45.99039" lon="2.86478">
        <ele>705</ele>
        <time>2015-10-17T20:32:55Z</time>
      </trkpt>
      <trkpt lat="45.99064" lon="2.86466">
        <ele>706</ele>
        <time>2015-10-17T20:34:55Z</time>
      </trkpt>
      <trkpt lat="45.99103" lon="2.8644">
        <ele>707</ele>
        <time>2015-10-17T20:36:55Z</time>
      </trkpt>
      <trkpt lat="45.99149" lon="2.8641">
        <ele>711</ele>
        <time>2015-10-17T20:38:55Z</time>
      </trkpt>
      <trkpt lat="45.99158" lon="2.86382">
        <ele>711</ele>
        <time>2015-10-17T20:40:55Z</time>
      </trkpt>
      <trkpt lat="45.99171" lon="2.8633">
        <ele>712</ele>
        <time>2015-10-17T20:42:55Z</time>
      </trkpt>
      <trkpt lat="45.99216" lon="2.8629">
        <ele>713</ele>
        <time>2015-10-17T20:44:55Z</time>
      </trkpt>
      <trkpt lat="45.99264" lon="2.86266">
        <ele>713</ele>
        <time>2015-10-17T20:46:55Z</time>
      </trkpt>
      <trkpt lat="45.99344" lon="2.8624">
        <ele>712</ele>
        <time>2015-10-17T20:48:55Z</time>
      </trkpt>
      <trkpt lat="45.99387" lon="2.86247">
        <ele>713</ele>
        <time>2015-10-17T20:50:55Z</time>
      </trkpt>
      <trkpt lat="45.99444" lon="2.8629">
        <ele>713</ele>
        <time>2015-10-17T20:52:55Z</time>
      </trkpt>
      <trkpt lat="45.99501" lon="2.86397">
        <ele>711</ele>
        <time>2015-10-17T20:54:55Z</time>
      </trkpt>
      <trkpt lat="45.99535" lon="2.86446">
        <ele>710</ele>
        <time>2015-10-17T20:56:55Z</time>
      </trkpt>
      <trkpt lat="45.99601" lon="2.86528">
        <ele>707</ele>
        <time>2015-10-17T20:58:55Z</time>
      </trkpt>
      <trkpt lat="45.99636" lon="2.86504">
        <ele>707</ele>
        <time>2015-10-17T21:00:55Z</time>
      </trkpt>
      <trkpt lat="45.99729" lon="2.86493">
        <ele>705</ele>
        <time>2015-10-17T21:02:55Z</time>
      </trkpt>
      <trkpt lat="45.99838" lon="2.86526">
        <ele>703</ele>
        <time>2015-10-17T21:04:55Z</time>
      </trkpt>
      <trkpt lat="45.99879" lon="2.86539">
        <ele>703</ele>
        <time>2015-10-17T21:06:55Z</time>
      </trkpt>
      <trkpt lat="45.99921" lon="2.86564">
        <ele>702</ele>
        <time>2015-10-17T21:08:55Z</time>
      </trkpt>
      <trkpt lat="46.00007" lon="2.86627">
        <ele>702</ele>
        <time>2015-10-17T21:10:55Z</time>
      </trkpt>
      <trkpt lat="46.00095" lon="2.86678">
        <ele>698</ele>
        <time>2015-10-17T21:12:55Z</time>
      </trkpt>
      <trkpt lat="46.0014" lon="2.8671">
        <ele>697</ele>
        <time>2015-10-17T21:14:55Z</time>
      </trkpt>
      <trkpt lat="46.00221" lon="2.86818">
        <ele>688</ele>
        <time>2015-10-17T21:16:55Z</time>
      </trkpt>
      <trkpt lat="46.00253" lon="2.8685">
        <ele>686</ele>
        <time>2015-10-17T21:18:55Z</time>
      </trkpt>
      <trkpt lat="46.00304" lon="2.86886">
        <ele>681</ele>
        <time>2015-10-17T21:20:55Z</time>
      </trkpt>
      <trkpt lat="46.00318" lon="2.86951">
        <ele>678</ele>
        <time>2015-10-17T21:22:55Z</time>
      </trkpt>
      <trkpt lat="46.00344" lon="2.87051">
        <ele>670</ele>
        <time>2015-10-17T21:24:55Z</time>
      </trkpt>
      <trkpt lat="46.00289" lon="2.87133">
        <ele>660</ele>
        <time>2015-10-17T21:26:55Z</time>
      </trkpt>
      <trkpt lat="46.00242" lon="2.87187">
        <ele>651</ele>
        <time>2015-10-17T21:28:55Z</time>
      </trkpt>
      <trkpt lat="46.00236" lon="2.87294">
        <ele>638</ele>
        <time>2015-10-17T21:30:55Z</time>
      </trkpt>
      <trkpt lat="46.00243" lon="2.87343">
        <ele>630</ele>
        <time>2015-10-17T21:32:55Z</time>
      </trkpt>
      <trkpt lat="46.00218" lon="2.87378">
        <ele>628</ele>
        <time>2015-10-17T21:34:55Z</time>
      </trkpt>
      <trkpt lat="46.00191" lon="2.87425">
        <ele>621</ele>
        <time>2015-10-17T21:36:55Z</time>
      </trkpt>
      <trkpt lat="46.00171" lon="2.87481">
        <ele>609</ele>
        <time>2015-10-17T21:38:55Z</time>
      </trkpt>
      <trkpt lat="46.00145" lon="2.87523">
        <ele>598</ele>
        <time>2015-10-17T21:40:55Z</time>
      </trkpt>
      <trkpt lat="46.00118" lon="2.87506">
        <ele>598</ele>
        <time>2015-10-17T21:42:55Z</time>
      </trkpt>
      <trkpt lat="46.00127" lon="2.87607">
        <ele>578</ele>
        <time>2015-10-17T21:44:55Z</time>
      </trkpt>
      <trkpt lat="46.00143" lon="2.87646">
        <ele>571</ele>
        <time>2015-10-17T21:46:55Z</time>
      </trkpt>
      <trkpt lat="46.00149" lon="2.87674">
        <ele>566</ele>
        <time>2015-10-17T21:48:55Z</time>
      </trkpt>
      <trkpt lat="46.00124" lon="2.87669">
        <ele>563</ele>
        <time>2015-10-17T21:50:55Z</time>
      </trkpt>
      <trkpt lat="46.00052" lon="2.87607">
        <ele>558</ele>
        <time>2015-10-17T21:52:55Z</time>
      </trkpt>
      <trkpt lat="46.00028" lon="2.87579">
        <ele>556</ele>
        <time>2015-10-17T21:54:55Z</time>
      </trkpt>
      <trkpt lat="45.99978" lon="2.87551">
        <ele>550</ele>
        <time>2015-10-17T21:56:55Z</time>
      </trkpt>
      <trkpt lat="45.99948" lon="2.87577">
        <ele>537</ele>
        <time>2015-10-17T21:58:55Z</time>
      </trkpt>
      <trkpt lat="45.99927" lon="2.87566">
        <ele>537</ele>
        <time>2015-10-17T22:00:55Z</time>
      </trkpt>
      <trkpt lat="45.99897" lon="2.87571">
        <ele>541</ele>
        <time>2015-10-17T22:02:55Z</time>
      </trkpt>
      <trkpt lat="45.99903" lon="2.8765">
        <ele>529</ele>
        <time>2015-10-17T22:04:55Z</time>
      </trkpt>
      <trkpt lat="45.99909" lon="2.87676">
        <ele>523</ele>
        <time>2015-10-17T22:06:55Z</time>
      </trkpt>
      <trkpt lat="45.99931" lon="2.87751">
        <ele>509</ele>
        <time>2015-10-17T22:08:55Z</time>
      </trkpt>
      <trkpt lat="45.99942" lon="2.8779">
        <ele>501</ele>
        <time>2015-10-17T22:10:55Z</time>
      </trkpt>
      <trkpt lat="45.99949" lon="2.87832">
        <ele>492</ele>
        <time>2015-10-17T22:12:55Z</time>
      </trkpt>
      <trkpt lat="45.99924" lon="2.87912">
        <ele>480</ele>
        <time>2015-10-17T22:14:55Z</time>
      </trkpt>
      <trkpt lat="45.99861" lon="2.87948">
        <ele>471</ele>
        <time>2015-10-17T22:16:55Z</time>
      </trkpt>
      <trkpt lat="45.99802" lon="2.88028">
        <ele>455</ele>
        <time>2015-10-17T22:18:55Z</time>
      </trkpt>
      <trkpt lat="45.99729" lon="2.88064">
        <ele>446</ele>
        <time>2015-10-17T22:20:55Z</time>
      </trkpt>
      <trkpt lat="45.99657" lon="2.88064">
        <ele>446</ele>
        <time>2015-10-17T22:22:55Z</time>
      </trkpt>
      <trkpt lat="45.99596" lon="2.88075">
        <ele>440</ele>
        <time>2015-10-17T22:24:55Z</time>
      </trkpt>
      <trkpt lat="45.99562" lon="2.88075">
        <ele>436</ele>
        <time>2015-10-17T22:26:55Z</time>
      </trkpt>
      <trkpt lat="45.99463" lon="2.88075">
        <ele>420</ele>
        <time>2015-10-17T22:28:55Z</time>
      </trkpt>
      <trkpt lat="45.99399" lon="2.88062">
        <ele>413</ele>
        <time>2015-10-17T22:30:55Z</time>
      </trkpt>
      <trkpt lat="45.99402" lon="2.88101">
        <ele>408</ele>
        <time>2015-10-17T22:32:55Z</time>
      </trkpt>
      <trkpt lat="45.99416" lon="2.88141">
        <ele>405</ele>
        <time>2015-10-17T22:34:55Z</time>
      </trkpt>
      <trkpt lat="45.99429" lon="2.88178">
        <ele>404</ele>
        <time>2015-10-17T22:36:55Z</time>
      </trkpt>
      <trkpt lat="45.9945" lon="2.88236">
        <ele>411</ele>
        <time>2015-10-17T22:38:55Z</time>
      </trkpt>
      <trkpt lat="45.99434" lon="2.88239">
        <ele>413</ele>
        <time>2015-10-17T22:40:55Z</time>
      </trkpt>
      <trkpt lat="45.99424" lon="2.88234">
        <ele>413</ele>
        <time>2015-10-17T22:42:55Z</time>
      </trkpt>
      <trkpt lat="45.99412" lon="2.88246">
        <ele>417</ele>
        <time>2015-10-17T22:44:55Z</time>
      </trkpt>
      <trkpt lat="45.99413" lon="2.88261">
        <ele>422</ele>
        <time>2015-10-17T22:46:55Z</time>
      </trkpt>
      <trkpt lat="45.99428" lon="2.88276">
        <ele>425</ele>
        <time>2015-10-17T22:48:55Z</time>
      </trkpt>
      <trkpt lat="45.99441" lon="2.88284">
        <ele>427</ele>
        <time>2015-10-17T22:50:55Z</time>
      </trkpt>
      <trkpt lat="45.99449" lon="2.8829">
        <ele>428</ele>
        <time>2015-10-17T22:52:55Z</time>
      </trkpt>
      <trkpt lat="45.99459" lon="2.88294">
        <ele>429</ele>
        <time>2015-10-17T22:54:55Z</time>
      </trkpt>
      <trkpt lat="45.99468" lon="2.88294">
        <ele>427</ele>
        <time>2015-10-17T22:56:55Z</time>
      </trkpt>
      <trkpt lat="45.99476" lon="2.88296">
        <ele>427</ele>
        <time>2015-10-17T22:58:55Z</time>
      </trkpt>
      <trkpt lat="45.9948" lon="2.88302">
        <ele>429</ele>
        <time>2015-10-17T23:00:55Z</time>
      </trkpt>
      <trkpt lat="45.99475" lon="2.88306">
        <ele>431</ele>
        <time>2015-10-17T23:02:55Z</time>
      </trkpt>
      <trkpt lat="45.99452" lon="2.88306">
        <ele>434</ele>
        <time>2015-10-17T23:04:55Z</time>
      </trkpt>
      <trkpt lat="45.9944" lon="2.88305">
        <ele>436</ele>
        <time>2015-10-17T23:06:55Z</time>
      </trkpt>
      <trkpt lat="45.99427" lon="2.88306">
        <ele>438</ele>
        <time>2015-10-17T23:08:55Z</time>
      </trkpt>
      <trkpt lat="45.99417" lon="2.88303">
        <ele>438</ele>
        <time>2015-10-17T23:10:55Z</time>
      </trkpt>
      <trkpt lat="45.99408" lon="2.88301">
        <ele>439</ele>
        <time>2015-10-17T23:12:55Z</time>
      </trkpt>
      <trkpt lat="45.99387" lon="2.88312">
        <ele>445</ele>
        <time>2015-10-17T23:14:55Z</time>
      </trkpt>
      <trkpt lat="45.9938" lon="2.8832">
        <ele>448</ele>
        <time>2015-10-17T23:16:55Z</time>
      </trkpt>
      <trkpt lat="45.99368" lon="2.88335">
        <ele>453</ele>
        <time>2015-10-17T23:18:55Z</time>
      </trkpt>
      <trkpt lat="45.99356" lon="2.88353">
        <ele>458</ele>
        <time>2015-10-17T23:20:55Z</time>
      </trkpt>
      <trkpt lat="45.99349" lon="2.88362">
        <ele>460</ele>
        <time>2015-10-17T23:22:55Z</time>
      </trkpt>
      <trkpt lat="45.99329" lon="2.8838">
        <ele>464</ele>
        <time>2015-10-17T23:24:55Z</time>
      </trkpt>
      <trkpt lat="45.99316" lon="2.88404">
        <ele>474</ele>
        <time>2015-10-17T23:26:55Z</time>
      </trkpt>
      <trkpt lat="45.99301" lon="2.88412">
        <ele>480</ele>
        <time>2015-10-17T23:28:55Z</time>
      </trkpt>
      <trkpt lat="45.99295" lon="2.88394">
        <ele>479</ele>
        <time>2015-10-17T23:30:55Z</time>
      </trkpt>
      <trkpt lat="45.99296" lon="2.88346">
        <ele>469</ele>
        <time>2015-10-17T23:32:55Z</time>
      </trkpt>
      <trkpt lat="45.99293" lon="2.88296">
        <ele>460</ele>
        <time>2015-10-17T23:34:55Z</time>
      </trkpt>
      <trkpt lat="45.99286" lon="2.88307">
        <ele>465</ele>
        <time>2015-10-17T23:36:55Z</time>
      </trkpt>
      <trkpt lat="45.99281" lon="2.88327">
        <ele>470</ele>
        <time>2015-10-17T23:38:55Z</time>
      </trkpt>
      <trkpt lat="45.99273" lon="2.88348">
        <ele>477</ele>
        <time>2015-10-17T23:40:55Z</time>
      </trkpt>
      <trkpt lat="45.99262" lon="2.88342">
        <ele>479</ele>
        <time>2015-10-17T23:42:55Z</time>
      </trkpt>
      <trkpt lat="45.99256" lon="2.88322">
        <ele>477</ele>
        <time>2015-10-17T23:44:55Z</time>
      </trkpt>
      <trkpt lat="45.99249" lon="2.88307">
        <ele>476</ele>
        <time>2015-10-17T23:46:55Z</time>
      </trkpt>
      <trkpt lat="45.99232" lon="2.88292">
        <ele>476</ele>
        <time>2015-10-17T23:48:55Z</time>
      </trkpt>
      <trkpt lat="45.99218" lon="2.8829">
        <ele>478</ele>
        <time>2015-10-17T23:50:55Z</time>
      </trkpt>
      <trkpt lat="45.99201" lon="2.88291">
        <ele>481</ele>
        <time>2015-10-17T23:52:55Z</time>
      </trkpt>
      <trkpt lat="45.99184" lon="2.88294">
        <ele>485</ele>
        <time>2015-10-17T23:54:55Z</time>
      </trkpt>
      <trkpt lat="45.99163" lon="2.88298">
        <ele>491</ele>
        <time>2015-10-17T23:56:55Z</time>
      </trkpt>
      <trkpt lat="45.99121" lon="2.88299">
        <ele>497</ele>
        <time>2015-10-17T23:58:55Z</time>
      </trkpt>
      <trkpt lat="45.99104" lon="2.88298">
        <ele>498</ele>
        <time>2015-10-18T00:00:55Z</time>
      </trkpt>
      <trkpt lat="45.99091" lon="2.883">
        <ele>501</ele>
        <time>2015-10-18T00:02:55Z</time>
      </trkpt>
      <trkpt lat="45.99085" lon="2.88302">
        <ele>503</ele>
        <time>2015-10-18T00:04:55Z</time>
      </trkpt>
      <trkpt lat="45.99096" lon="2.8831">
        <ele>504</ele>
        <time>2015-10-18T00:06:55Z</time>
      </trkpt>
      <trkpt lat="45.99136" lon="2.8835">
        <ele>513</ele>
        <time>2015-10-18T00:08:55Z</time>
      </trkpt>
      <trkpt lat="45.99155" lon="2.88367">
        <ele>515</ele>
        <time>2015-10-18T00:10:55Z</time>
      </trkpt>
      <trkpt lat="45.99177" lon="2.88396">
        <ele>520</ele>
        <time>2015-10-18T00:12:55Z</time>
      </trkpt>
      <trkpt lat="45.9919" lon="2.88424">
        <ele>522</ele>
        <time>2015-10-18T00:14:55Z</time>
      </trkpt>
      <trkpt lat="45.99206" lon="2.88461">
        <ele>522</ele>
        <time>2015-10-18T00:16:55Z</time>
      </trkpt>
      <trkpt lat="45.99208" lon="2.8849">
        <ele>525</ele>
        <time>2015-10-18T00:18:55Z</time>
      </trkpt>
      <trkpt lat="45.99197" lon="2.88505">
        <ele>531</ele>
        <time>2015-10-18T00:20:55Z</time>
      </trkpt>
      <trkpt lat="45.99179" lon="2.88528">
        <ele>538</ele>
        <time>2015-10-18T00:22:55Z</time>
      </trkpt>
      <trkpt lat="45.99164" lon="2.88551">
        <ele>544</ele>
        <time>2015-10-18T00:24:55Z</time>
      </trkpt>
      <trkpt lat="45.9915" lon="2.88579">
        <ele>550</ele>
        <time>2015-10-18T00:26:55Z</time>
      </trkpt>
      <trkpt lat="45.99143" lon="2.88598">
        <ele>554</ele>
        <time>2015-10-18T00:28:55Z</time>
      </trkpt>
      <trkpt lat="45.99128" lon="2.8864">
        <ele>563</ele>
        <time>2015-10-18T00:30:55Z</time>
      </trkpt>
      <trkpt lat="45.99122" lon="2.88663">
        <ele>567</ele>
        <time>2015-10-18T00:32:55Z</time>
      </trkpt>
      <trkpt lat="45.99122" lon="2.88687">
        <ele>569</ele>
        <time>2015-10-18T00:34:55Z</time>
      </trkpt>
      <trkpt lat="45.9912" lon="2.88731">
        <ele>574</ele>
        <time>2015-10-18T00:36:55Z</time>
      </trkpt>
      <trkpt lat="45.99119" lon="2.88764">
        <ele>577</ele>
        <time>2015-10-18T00:38:55Z</time>
      </trkpt>
      <trkpt lat="45.99106" lon="2.8874">
        <ele>582</ele>
        <time>2015-10-18T00:40:55Z</time>
      </trkpt>
      <trkpt lat="45.9908" lon="2.8869">
        <ele>592</ele>
        <time>2015-10-18T00:42:55Z</time>
      </trkpt>
      <trkpt lat="45.99069" lon="2.88647">
        <ele>593</ele>
        <time>2015-10-18T00:44:55Z</time>
      </trkpt>
      <trkpt lat="45.99049" lon="2.88554">
        <ele>588</ele>
        <time>2015-10-18T00:46:55Z</time>
      </trkpt>
      <trkpt lat="45.99013" lon="2.8855">
        <ele>596</ele>
        <time>2015-10-18T00:48:55Z</time>
      </trkpt>
      <trkpt lat="45.98991" lon="2.88553">
        <ele>600</ele>
        <time>2015-10-18T00:50:55Z</time>
      </trkpt>
      <trkpt lat="45.98974" lon="2.8856">
        <ele>600</ele>
        <time>2015-10-18T00:52:55Z</time>
      </trkpt>
      <trkpt lat="45.9896" lon="2.88568">
        <ele>602</ele>
        <time>2015-10-18T00:54:55Z</time>
      </trkpt>
      <trkpt lat="45.9895" lon="2.88571">
        <ele>602</ele>
        <time>2015-10-18T00:56:55Z</time>
      </trkpt>
      <trkpt lat="45.98939" lon="2.8858">
        <ele>603</ele>
        <time>2015-10-18T00:58:55Z</time>
      </trkpt>
      <trkpt lat="45.98913" lon="2.88598">
        <ele>605</ele>
        <time>2015-10-18T01:00:55Z</time>
      </trkpt>
      <trkpt lat="45.98913" lon="2.88629">
        <ele>613</ele>
        <time>2015-10-18T01:02:55Z</time>
      </trkpt>
      <trkpt lat="45.9892" lon="2.88643">
        <ele>617</ele>
        <time>2015-10-18T01:04:55Z</time>
      </trkpt>
      <trkpt lat="45.98949" lon="2.88656">
        <ele>620</ele>
        <time>2015-10-18T01:06:55Z</time>
      </trkpt>
      <trkpt lat="45.98964" lon="2.88671">
        <ele>623</ele>
        <time>2015-10-18T01:08:55Z</time>
      </trkpt>
      <trkpt lat="45.98957" lon="2.88697">
        <ele>628</ele>
        <time>2015-10-18T01:10:55Z</time>
      </trkpt>
      <trkpt lat="45.98957" lon="2.88706">
        <ele>630</ele>
        <time>2015-10-18T01:12:55Z</time>
      </trkpt>
      <trkpt lat="45.98963" lon="2.88719">
        <ele>632</ele>
        <time>2015-10-18T01:14:55Z</time>
      </trkpt>
      <trkpt lat="45.98969" lon="2.88728">
        <ele>633</ele>
        <time>2015-10-18T01:16:55Z</time>
      </trkpt>
      <trkpt lat="45.98972" lon="2.88749">
        <ele>637</ele>
        <time>2015-10-18T01:18:55Z</time>
      </trkpt>
      <trkpt lat="45.98973" lon="2.88767">
        <ele>640</ele>
        <time>2015-10-18T01:20:55Z</time>
      </trkpt>
      <trkpt lat="45.98968" lon="2.88772">
        <ele>641</ele>
        <time>2015-10-18T01:22:55Z</time>
      </trkpt>
      <trkpt lat="45.98936" lon="2.88785">
        <ele>649</ele>
        <time>2015-10-18T01:24:55Z</time>
      </trkpt>
      <trkpt lat="45.98924" lon="2.88801">
        <ele>655</ele>
        <time>2015-10-18T01:26:55Z</time>
      </trkpt>
      <trkpt lat="45.98934" lon="2.88809">
        <ele>655</ele>
        <time>2015-10-18T01:28:55Z</time>
      </trkpt>
      <trkpt lat="45.98938" lon="2.88822">
        <ele>657</ele>
        <time>2015-10-18T01:30:55Z</time>
      </trkpt>
      <trkpt lat="45.98959" lon="2.88864">
        <ele>658</ele>
        <time>2015-10-18T01:32:55Z</time>
      </trkpt>
      <trkpt lat="45.98968" lon="2.88899">
        <ele>660</ele>
        <time>2015-10-18T01:34:55Z</time>
      </trkpt>
      <trkpt lat="45.98962" lon="2.8892">
        <ele>663</ele>
        <time>2015-10-18T01:36:55Z</time>
      </trkpt>
      <trkpt lat="45.98955" lon="2.88923">
        <ele>665</ele>
        <time>2015-10-18T01:38:55Z</time>
      </trkpt>
      <trkpt lat="45.98943" lon="2.88919">
        <ele>668</ele>
        <time>2015-10-18T01:40:55Z</time>
      </trkpt>
      <trkpt lat="45.98927" lon="2.88935">
        <ele>672</ele>
        <time>2015-10-18T01:42:55Z</time>
      </trkpt>
      <trkpt lat="45.98918" lon="2.88949">
        <ele>675</ele>
        <time>2015-10-18T01:44:55Z</time>
      </trkpt>
      <trkpt lat="45.98912" lon="2.88965">
        <ele>675</ele>
        <time>2015-10-18T01:46:55Z</time>
      </trkpt>
      <trkpt lat="45.98904" lon="2.88986">
        <ele>675</ele>
        <time>2015-10-18T01:48:55Z</time>
      </trkpt>
      <trkpt lat="45.98896" lon="2.89012">
        <ele>676</ele>
        <time>2015-10-18T01:50:55Z</time>
      </trkpt>
      <trkpt lat="45.98889" lon="2.89027">
        <ele>676</ele>
        <time>2015-10-18T01:52:55Z</time>
      </trkpt>
      <trkpt lat="45.98878" lon="2.89047">
        <ele>677</ele>
        <time>2015-10-18T01:54:55Z</time>
      </trkpt>
      <trkpt lat="45.98868" lon="2.89072">
        <ele>677</ele>
        <time>2015-10-18T01:56:55Z</time>
      </trkpt>
      <trkpt lat="45.98851" lon="2.89109">
        <ele>677</ele>
        <time>2015-10-18T01:58:55Z</time>
      </trkpt>
      <trkpt lat="45.98828" lon="2.8911">
        <ele>677</ele>
        <time>2015-10-18T02:00:55Z</time>
      </trkpt>
      <trkpt lat="45.988" lon="2.89109">
        <ele>678</ele>
        <time>2015-10-18T02:02:55Z</time>
      </trkpt>
      <trkpt lat="45.98769" lon="2.89105">
        <ele>678</ele>
        <time>2015-10-18T02:04:55Z</time>
      </trkpt>
      <trkpt lat="45.98728" lon="2.89128">
        <ele>679</ele>
        <time>2015-10-18T02:06:55Z</time>
      </trkpt>
      <trkpt lat="45.9868" lon="2.89172">
        <ele>678</ele>
        <time>2015-10-18T02:08:55Z</time>
      </trkpt>
      <trkpt lat="45.98656" lon="2.89188">
        <ele>678</ele>
        <time>2015-10-18T02:10:55Z</time>
      </trkpt>
      <trkpt lat="45.98618" lon="2.89209">
        <ele>678</ele>
        <time>2015-10-18T02:12:55Z</time>
      </trkpt>
      <trkpt lat="45.98596" lon="2.89228">
        <ele>678</ele>
        <time>2015-10-18T02:14:55Z</time>
      </trkpt>
      <trkpt lat="45.98576" lon="2.89252">
        <ele>677</ele>
        <time>2015-10-18T02:16:55Z</time>
      </trkpt>
      <trkpt lat="45.98545" lon="2.8934">
        <ele>683</ele>
        <time>2015-10-18T02:18:55Z</time>
      </trkpt>
      <trkpt lat="45.98526" lon="2.89397">
        <ele>689</ele>
        <time>2015-10-18T02:20:55Z</time>
      </trkpt>
      <trkpt lat="45.98511" lon="2.89441">
        <ele>693</ele>
        <time>2015-10-18T02:22:55Z</time>
      </trkpt>
      <trkpt lat="45.98498" lon="2.89476">
        <ele>696</ele>
        <time>2015-10-18T02:24:55Z</time>
      </trkpt>
      <trkpt lat="45.98497" lon="2.8952">
        <ele>699</ele>
        <time>2015-10-18T02:26:55Z</time>
      </trkpt>
      <trkpt lat="45.98498" lon="2.89567">
        <ele>702</ele>
        <time>2015-10-18T02:28:55Z</time>
      </trkpt>
    </trkseg>
  </trk>
</gpx>